sensor_id;sensor_type;location;lat;lon;timestamp;pressure;altitude;pressure_sealevel;temperature;humidity
69766;BME280;57039;48.014;21.384;2023-08-21T00:00:22;100962.06;;;23.14;100.00
69766;BME280;57039;48.014;21.384;2023-08-21T00:01:24;100953.13;;;23.06;100.00
69766;BME280;57039;48.014;21.384;2023-08-21T00:02:28;100955.16;;;23.12;100.00
69766;BME280;57039;48.014;21.384;2023-08-21T00:03:30;100958.53;;;23.14;100.00
69766;BME280;57039;48.014;21.384;2023-08-21T00:04:33;100960.53;;;23.12;100.00
69766;BME280;57039;48.014;21.384;2023-08-21T00:05:37;100960.84;;;23.09;100.00
69766;BME280;57039;48.014;21.384;2023-08-21T00:06:39;100949.06;;;23.01;100.00
69766;BME280;57039;48.014;21.384;2023-08-21T00:07:42;100954.12;;;23.05;100.00
69766;BME280;57039;48.014;21.384;2023-08-21T00:08:46;100947.12;;;22.94;100.00
69766;BME280;57039;48.014;21.384;2023-08-21T00:09:49;100955.13;;;23.04;100.00
69766;BME280;57039;48.014;21.384;2023-08-21T00:10:52;100954.44;;;23.01;100.00
69766;BME280;57039;48.014;21.384;2023-08-21T00:11:55;100957.25;;;23.00;100.00
69766;BME280;57039;48.014;21.384;2023-08-21T00:12:58;100953.06;;;22.97;100.00
69766;BME280;57039;48.014;21.384;2023-08-21T00:14:01;100957.09;;;23.01;100.00
69766;BME280;57039;48.014;21.384;2023-08-21T00:15:04;100955.56;;;22.99;100.00
69766;BME280;57039;48.014;21.384;2023-08-21T00:16:06;100957.56;;;22.97;100.00
69766;BME280;57039;48.014;21.384;2023-08-21T00:17:09;100961.09;;;22.97;100.00
69766;BME280;57039;48.014;21.384;2023-08-21T00:18:12;100956.72;;;22.96;100.00
69766;BME280;57039;48.014;21.384;2023-08-21T00:19:15;100927.78;;;22.82;100.00
69766;BME280;57039;48.014;21.384;2023-08-21T00:20:18;100960.62;;;23.02;100.00
69766;BME280;57039;48.014;21.384;2023-08-21T00:21:21;100960.78;;;23.00;100.00
69766;BME280;57039;48.014;21.384;2023-08-21T00:22:24;100959.47;;;23.05;100.00
69766;BME280;57039;48.014;21.384;2023-08-21T00:23:27;100962.53;;;23.10;100.00
69766;BME280;57039;48.014;21.384;2023-08-21T00:24:29;100965.25;;;23.18;100.00
69766;BME280;57039;48.014;21.384;2023-08-21T00:25:33;100968.31;;;23.23;100.00
69766;BME280;57039;48.014;21.384;2023-08-21T00:26:36;100962.87;;;23.15;100.00
69766;BME280;57039;48.014;21.384;2023-08-21T00:27:38;100965.87;;;23.12;100.00
69766;BME280;57039;48.014;21.384;2023-08-21T00:28:41;100958.47;;;23.06;100.00
69766;BME280;57039;48.014;21.384;2023-08-21T00:29:45;100962.84;;;23.07;100.00
69766;BME280;57039;48.014;21.384;2023-08-21T00:30:47;100961.75;;;22.99;100.00
69766;BME280;57039;48.014;21.384;2023-08-21T00:31:50;100966.16;;;23.00;100.00
69766;BME280;57039;48.014;21.384;2023-08-21T00:32:53;100967.81;;;23.01;100.00
69766;BME280;57039;48.014;21.384;2023-08-21T00:33:56;100960.47;;;23.04;100.00
69766;BME280;57039;48.014;21.384;2023-08-21T00:34:59;100960.84;;;23.09;100.00
69766;BME280;57039;48.014;21.384;2023-08-21T00:36:02;100961.84;;;23.08;100.00
69766;BME280;57039;48.014;21.384;2023-08-21T00:37:04;100963.38;;;23.10;100.00
69766;BME280;57039;48.014;21.384;2023-08-21T00:38:07;100961.69;;;23.09;100.00
69766;BME280;57039;48.014;21.384;2023-08-21T00:39:10;100969.88;;;23.08;100.00
69766;BME280;57039;48.014;21.384;2023-08-21T00:40:13;100974.53;;;23.06;100.00
69766;BME280;57039;48.014;21.384;2023-08-21T00:41:16;100964.44;;;22.99;100.00
69766;BME280;57039;48.014;21.384;2023-08-21T00:42:18;100965.75;;;22.95;100.00
69766;BME280;57039;48.014;21.384;2023-08-21T00:43:21;100976.88;;;22.91;100.00
69766;BME280;57039;48.014;21.384;2023-08-21T00:44:24;100970.28;;;22.85;100.00
69766;BME280;57039;48.014;21.384;2023-08-21T00:45:27;100970.78;;;22.81;100.00
69766;BME280;57039;48.014;21.384;2023-08-21T00:46:31;100981.91;;;22.76;100.00
69766;BME280;57039;48.014;21.384;2023-08-21T00:47:35;100983.22;;;22.72;100.00
69766;BME280;57039;48.014;21.384;2023-08-21T00:48:38;100982.84;;;22.67;100.00
69766;BME280;57039;48.014;21.384;2023-08-21T00:49:41;100988.47;;;22.64;100.00
69766;BME280;57039;48.014;21.384;2023-08-21T00:50:44;100981.28;;;22.64;100.00
69766;BME280;57039;48.014;21.384;2023-08-21T00:51:48;100983.13;;;22.64;100.00
69766;BME280;57039;48.014;21.384;2023-08-21T00:52:52;100980.63;;;22.62;100.00
69766;BME280;57039;48.014;21.384;2023-08-21T00:53:55;100990.50;;;22.62;100.00
69766;BME280;57039;48.014;21.384;2023-08-21T00:54:59;100987.81;;;22.62;100.00
69766;BME280;57039;48.014;21.384;2023-08-21T00:56:02;100986.81;;;22.63;100.00
69766;BME280;57039;48.014;21.384;2023-08-21T00:57:06;100989.00;;;22.67;100.00
69766;BME280;57039;48.014;21.384;2023-08-21T00:58:11;100977.25;;;22.60;100.00
69766;BME280;57039;48.014;21.384;2023-08-21T00:59:21;100984.53;;;22.68;100.00
69766;BME280;57039;48.014;21.384;2023-08-21T01:00:26;100983.38;;;22.70;100.00
69766;BME280;57039;48.014;21.384;2023-08-21T01:01:29;100991.47;;;22.78;100.00
69766;BME280;57039;48.014;21.384;2023-08-21T01:02:32;100987.97;;;22.78;100.00
69766;BME280;57039;48.014;21.384;2023-08-21T01:03:35;100990.34;;;22.81;100.00
69766;BME280;57039;48.014;21.384;2023-08-21T01:04:38;100993.25;;;22.88;100.00
69766;BME280;57039;48.014;21.384;2023-08-21T01:05:41;100993.41;;;22.86;100.00
69766;BME280;57039;48.014;21.384;2023-08-21T01:06:45;100988.41;;;22.91;100.00
69766;BME280;57039;48.014;21.384;2023-08-21T01:08:01;100990.97;;;22.93;100.00
69766;BME280;57039;48.014;21.384;2023-08-21T01:09:29;100982.78;;;22.94;100.00
69766;BME280;57039;48.014;21.384;2023-08-21T01:10:53;100995.59;;;23.00;100.00
69766;BME280;57039;48.014;21.384;2023-08-21T01:14:30;100994.28;;;23.05;100.00
69766;BME280;57039;48.014;21.384;2023-08-21T01:15:33;100991.91;;;23.01;100.00
69766;BME280;57039;48.014;21.384;2023-08-21T01:16:37;100970.28;;;22.85;100.00
69766;BME280;57039;48.014;21.384;2023-08-21T01:17:42;100983.47;;;22.96;100.00
69766;BME280;57039;48.014;21.384;2023-08-21T01:18:47;100984.59;;;22.94;100.00
69766;BME280;57039;48.014;21.384;2023-08-21T01:19:52;100995.28;;;23.04;100.00
69766;BME280;57039;48.014;21.384;2023-08-21T01:20:57;100987.16;;;22.95;100.00
69766;BME280;57039;48.014;21.384;2023-08-21T01:22:00;100988.06;;;22.86;100.00
69766;BME280;57039;48.014;21.384;2023-08-21T01:23:04;100997.06;;;22.85;100.00
69766;BME280;57039;48.014;21.384;2023-08-21T01:24:10;100991.78;;;22.75;100.00
69766;BME280;57039;48.014;21.384;2023-08-21T01:25:15;100992.91;;;22.73;100.00
69766;BME280;57039;48.014;21.384;2023-08-21T01:26:18;100998.56;;;22.70;100.00
69766;BME280;57039;48.014;21.384;2023-08-21T01:27:21;100992.09;;;22.72;100.00
69766;BME280;57039;48.014;21.384;2023-08-21T01:28:25;100996.59;;;22.72;100.00
69766;BME280;57039;48.014;21.384;2023-08-21T01:29:28;100994.53;;;22.66;100.00
69766;BME280;57039;48.014;21.384;2023-08-21T01:30:32;100991.03;;;22.65;100.00
69766;BME280;57039;48.014;21.384;2023-08-21T01:31:37;100992.25;;;22.71;100.00
69766;BME280;57039;48.014;21.384;2023-08-21T01:34:02;100996.59;;;22.72;100.00
69766;BME280;57039;48.014;21.384;2023-08-21T01:35:07;100990.56;;;22.70;100.00
69766;BME280;57039;48.014;21.384;2023-08-21T01:36:12;100987.75;;;22.71;100.00
69766;BME280;57039;48.014;21.384;2023-08-21T01:37:15;100996.31;;;22.75;100.00
69766;BME280;57039;48.014;21.384;2023-08-21T01:38:19;101000.81;;;22.74;100.00
69766;BME280;57039;48.014;21.384;2023-08-21T01:39:23;100996.81;;;22.78;100.00
69766;BME280;57039;48.014;21.384;2023-08-21T01:40:26;101001.66;;;22.75;100.00
69766;BME280;57039;48.014;21.384;2023-08-21T01:41:29;100996.31;;;22.75;100.00
69766;BME280;57039;48.014;21.384;2023-08-21T01:42:31;101004.75;;;22.70;100.00
69766;BME280;57039;48.014;21.384;2023-08-21T01:43:34;100959.44;;;22.51;100.00
69766;BME280;57039;48.014;21.384;2023-08-21T01:44:37;101004.75;;;22.70;100.00
69766;BME280;57039;48.014;21.384;2023-08-21T01:45:41;101003.94;;;22.70;100.00
69766;BME280;57039;48.014;21.384;2023-08-21T01:46:45;100954.38;;;22.30;100.00
69766;BME280;57039;48.014;21.384;2023-08-21T01:47:49;101002.63;;;22.56;100.00
69766;BME280;57039;48.014;21.384;2023-08-21T01:48:52;101006.75;;;22.50;100.00
69766;BME280;57039;48.014;21.384;2023-08-21T01:49:55;101009.53;;;22.49;100.00
69766;BME280;57039;48.014;21.384;2023-08-21T01:51:00;101008.47;;;22.42;100.00
69766;BME280;57039;48.014;21.384;2023-08-21T01:52:03;101006.22;;;22.37;100.00
69766;BME280;57039;48.014;21.384;2023-08-21T01:53:06;101014.25;;;22.37;100.00
69766;BME280;57039;48.014;21.384;2023-08-21T01:54:09;101016.25;;;22.35;100.00
69766;BME280;57039;48.014;21.384;2023-08-21T01:55:12;101011.50;;;22.29;100.00
69766;BME280;57039;48.014;21.384;2023-08-21T01:56:15;101014.31;;;22.27;100.00
69766;BME280;57039;48.014;21.384;2023-08-21T01:57:18;101007.59;;;22.23;100.00
69766;BME280;57039;48.014;21.384;2023-08-21T01:58:21;101014.78;;;22.23;100.00
69766;BME280;57039;48.014;21.384;2023-08-21T01:59:24;101020.25;;;22.21;100.00
69766;BME280;57039;48.014;21.384;2023-08-21T02:00:27;101018.97;;;22.16;100.00
69766;BME280;57039;48.014;21.384;2023-08-21T02:01:30;101013.53;;;22.17;100.00
69766;BME280;57039;48.014;21.384;2023-08-21T02:02:33;101018.03;;;22.17;100.00
69766;BME280;57039;48.014;21.384;2023-08-21T02:03:36;101011.78;;;22.16;100.00
69766;BME280;57039;48.014;21.384;2023-08-21T02:04:39;101011.69;;;22.18;100.00
69766;BME280;57039;48.014;21.384;2023-08-21T02:05:42;101014.19;;;22.19;100.00
69766;BME280;57039;48.014;21.384;2023-08-21T02:06:45;101008.19;;;22.17;100.00
69766;BME280;57039;48.014;21.384;2023-08-21T02:07:48;101016.19;;;22.17;100.00
69766;BME280;57039;48.014;21.384;2023-08-21T02:08:50;101009.84;;;22.18;100.00
69766;BME280;57039;48.014;21.384;2023-08-21T02:09:53;101019.72;;;22.18;100.00
69766;BME280;57039;48.014;21.384;2023-08-21T02:10:56;101016.03;;;22.19;100.00
69766;BME280;57039;48.014;21.384;2023-08-21T02:11:59;101012.53;;;22.18;100.00
69766;BME280;57039;48.014;21.384;2023-08-21T02:13:02;101013.37;;;22.19;100.00
69766;BME280;57039;48.014;21.384;2023-08-21T02:14:04;101008.28;;;22.16;100.00
69766;BME280;57039;48.014;21.384;2023-08-21T02:15:08;101012.63;;;22.26;100.00
69766;BME280;57039;48.014;21.384;2023-08-21T02:16:11;101008.12;;;22.27;100.00
69766;BME280;57039;48.014;21.384;2023-08-21T02:17:16;101008.84;;;22.29;100.00
69766;BME280;57039;48.014;21.384;2023-08-21T02:18:18;101010.91;;;22.35;100.00
69766;BME280;57039;48.014;21.384;2023-08-21T02:19:21;101010.44;;;22.40;100.00
69766;BME280;57039;48.014;21.384;2023-08-21T02:20:24;101008.59;;;22.40;100.00
69766;BME280;57039;48.014;21.384;2023-08-21T02:21:27;101011.28;;;22.40;100.00
69766;BME280;57039;48.014;21.384;2023-08-21T02:22:29;101011.59;;;22.37;100.00
69766;BME280;57039;48.014;21.384;2023-08-21T02:23:32;101019.31;;;22.40;100.00
69766;BME280;57039;48.014;21.384;2023-08-21T02:24:35;101016.78;;;22.39;100.00
69766;BME280;57039;48.014;21.384;2023-08-21T02:25:37;101005.94;;;22.40;100.00
69766;BME280;57039;48.014;21.384;2023-08-21T02:26:41;101016.94;;;22.37;100.00
69766;BME280;57039;48.014;21.384;2023-08-21T02:27:45;101004.97;;;22.41;100.00
69766;BME280;57039;48.014;21.384;2023-08-21T02:28:48;101005.94;;;22.40;100.00
69766;BME280;57039;48.014;21.384;2023-08-21T02:29:52;101015.25;;;22.36;100.00
69766;BME280;57039;48.014;21.384;2023-08-21T02:30:54;100999.09;;;22.38;100.00
69766;BME280;57039;48.014;21.384;2023-08-21T02:31:57;101011.75;;;22.36;100.00
69766;BME280;57039;48.014;21.384;2023-08-21T02:33:01;101009.78;;;22.38;100.00
69766;BME280;57039;48.014;21.384;2023-08-21T02:34:05;101007.53;;;22.33;100.00
69766;BME280;57039;48.014;21.384;2023-08-21T02:35:08;101003.09;;;22.24;100.00
69766;BME280;57039;48.014;21.384;2023-08-21T02:36:11;101011.94;;;22.24;100.00
69766;BME280;57039;48.014;21.384;2023-08-21T02:37:14;101014.06;;;22.21;100.00
69766;BME280;57039;48.014;21.384;2023-08-21T02:38:16;101005.59;;;22.16;100.00
69766;BME280;57039;48.014;21.384;2023-08-21T02:39:19;101007.88;;;22.10;100.00
69766;BME280;57039;48.014;21.384;2023-08-21T02:40:22;101012.38;;;22.10;100.00
69766;BME280;57039;48.014;21.384;2023-08-21T02:41:25;101014.09;;;22.11;100.00
69766;BME280;57039;48.014;21.384;2023-08-21T02:42:28;101012.78;;;22.15;100.00
69766;BME280;57039;48.014;21.384;2023-08-21T02:43:31;101009.03;;;22.18;100.00
69766;BME280;57039;48.014;21.384;2023-08-21T02:44:33;101010.41;;;22.12;100.00
69766;BME280;57039;48.014;21.384;2023-08-21T02:45:37;101013.50;;;22.07;100.00
69766;BME280;57039;48.014;21.384;2023-08-21T02:46:40;101016.47;;;22.04;100.00
69766;BME280;57039;48.014;21.384;2023-08-21T02:47:43;101007.78;;;22.02;100.00
69766;BME280;57039;48.014;21.384;2023-08-21T02:48:46;101007.91;;;22.01;100.00
69766;BME280;57039;48.014;21.384;2023-08-21T02:49:49;101009.06;;;21.98;100.00
69766;BME280;57039;48.014;21.384;2023-08-21T02:50:52;101005.25;;;22.01;100.00
69766;BME280;57039;48.014;21.384;2023-08-21T02:51:55;101003.13;;;22.04;100.00
69766;BME280;57039;48.014;21.384;2023-08-21T02:52:58;100988.66;;;21.97;100.00
69766;BME280;57039;48.014;21.384;2023-08-21T02:54:01;101005.38;;;22.09;100.00
69766;BME280;57039;48.014;21.384;2023-08-21T02:55:05;101001.03;;;22.08;100.00
69766;BME280;57039;48.014;21.384;2023-08-21T02:56:08;100995.97;;;22.05;100.00
69766;BME280;57039;48.014;21.384;2023-08-21T02:57:13;100997.47;;;22.07;100.00
69766;BME280;57039;48.014;21.384;2023-08-21T02:58:15;100999.03;;;22.10;100.00
69766;BME280;57039;48.014;21.384;2023-08-21T02:59:18;100994.97;;;22.06;100.00
69766;BME280;57039;48.014;21.384;2023-08-21T03:00:21;101003.13;;;22.04;100.00
69766;BME280;57039;48.014;21.384;2023-08-21T03:01:24;100997.09;;;22.02;100.00
69766;BME280;57039;48.014;21.384;2023-08-21T03:02:27;101000.59;;;22.03;100.00
69766;BME280;57039;48.014;21.384;2023-08-21T03:03:30;101001.75;;;22.00;100.00
69766;BME280;57039;48.014;21.384;2023-08-21T03:04:32;101002.87;;;21.98;100.00
69766;BME280;57039;48.014;21.384;2023-08-21T03:05:35;101002.03;;;21.97;100.00
69766;BME280;57039;48.014;21.384;2023-08-21T03:06:38;101008.09;;;21.99;100.00
69766;BME280;57039;48.014;21.384;2023-08-21T03:07:41;101006.37;;;21.98;100.00
69766;BME280;57039;48.014;21.384;2023-08-21T03:08:44;101004.56;;;21.99;100.00
69766;BME280;57039;48.014;21.384;2023-08-21T03:09:47;101002.75;;;21.99;100.00
69766;BME280;57039;48.014;21.384;2023-08-21T03:10:51;101009.22;;;21.97;100.00
69766;BME280;57039;48.014;21.384;2023-08-21T03:11:53;101006.37;;;21.98;100.00
69766;BME280;57039;48.014;21.384;2023-08-21T03:12:57;100999.91;;;22.01;100.00
69766;BME280;57039;48.014;21.384;2023-08-21T03:14:00;101005.12;;;22.02;100.00
69766;BME280;57039;48.014;21.384;2023-08-21T03:15:03;101009.34;;;22.05;100.00
69766;BME280;57039;48.014;21.384;2023-08-21T03:16:06;101011.00;;;22.06;100.00
69766;BME280;57039;48.014;21.384;2023-08-21T03:17:09;101011.00;;;22.06;100.00
69766;BME280;57039;48.014;21.384;2023-08-21T03:18:12;101009.03;;;22.08;100.00
69766;BME280;57039;48.014;21.384;2023-08-21T03:19:15;100995.56;;;22.00;100.00
69766;BME280;57039;48.014;21.384;2023-08-21T03:20:18;101009.28;;;22.15;100.00
69766;BME280;57039;48.014;21.384;2023-08-21T03:21:22;101010.03;;;22.17;100.00
69766;BME280;57039;48.014;21.384;2023-08-21T03:22:25;101004.69;;;22.17;100.00
69766;BME280;57039;48.014;21.384;2023-08-21T03:23:28;100994.81;;;22.17;100.00
69766;BME280;57039;48.014;21.384;2023-08-21T03:24:34;101009.44;;;22.23;100.00
69766;BME280;57039;48.014;21.384;2023-08-21T03:25:36;101005.88;;;22.22;100.00
69766;BME280;57039;48.014;21.384;2023-08-21T03:26:39;101005.34;;;22.19;100.00
69766;BME280;57039;48.014;21.384;2023-08-21T03:27:42;101008.72;;;22.21;100.00
69766;BME280;57039;48.014;21.384;2023-08-21T03:28:47;101001.41;;;22.23;100.00
69766;BME280;57039;48.014;21.384;2023-08-21T03:29:50;101012.09;;;22.23;100.00
69766;BME280;57039;48.014;21.384;2023-08-21T03:30:52;101008.03;;;22.19;100.00
69766;BME280;57039;48.014;21.384;2023-08-21T03:31:55;101005.78;;;22.14;100.00
69766;BME280;57039;48.014;21.384;2023-08-21T03:32:58;101011.41;;;22.21;100.00
69766;BME280;57039;48.014;21.384;2023-08-21T03:34:01;101013.22;;;22.20;100.00
69766;BME280;57039;48.014;21.384;2023-08-21T03:35:05;101010.13;;;22.15;100.00
69766;BME280;57039;48.014;21.384;2023-08-21T03:36:08;101020.28;;;22.11;100.00
69766;BME280;57039;48.014;21.384;2023-08-21T03:37:11;101008.09;;;21.99;100.00
69766;BME280;57039;48.014;21.384;2023-08-21T03:38:14;101015.09;;;22.00;100.00
69766;BME280;57039;48.014;21.384;2023-08-21T03:39:17;101011.72;;;21.98;100.00
69766;BME280;57039;48.014;21.384;2023-08-21T03:40:20;101001.25;;;21.87;100.00
69766;BME280;57039;48.014;21.384;2023-08-21T03:41:25;101011.62;;;21.90;100.00
69766;BME280;57039;48.014;21.384;2023-08-21T03:42:28;100994.47;;;21.83;100.00
69766;BME280;57039;48.014;21.384;2023-08-21T03:43:31;100984.69;;;21.74;100.00
69766;BME280;57039;48.014;21.384;2023-08-21T03:44:34;101010.63;;;21.91;100.00
69766;BME280;57039;48.014;21.384;2023-08-21T03:45:37;101008.38;;;21.96;100.00
69766;BME280;57039;48.014;21.384;2023-08-21T03:46:41;100990.69;;;21.85;100.00
69766;BME280;57039;48.014;21.384;2023-08-21T03:47:44;101011.34;;;21.93;100.00
69766;BME280;57039;48.014;21.384;2023-08-21T03:48:48;101008.38;;;21.96;100.00
69766;BME280;57039;48.014;21.384;2023-08-21T03:49:52;101005.84;;;21.95;100.00
69766;BME280;57039;48.014;21.384;2023-08-21T03:50:56;101019.66;;;21.90;100.00
69766;BME280;57039;48.014;21.384;2023-08-21T03:51:59;100967.97;;;21.62;100.00
69766;BME280;57039;48.014;21.384;2023-08-21T03:53:01;101006.59;;;21.87;100.00
69766;BME280;57039;48.014;21.384;2023-08-21T03:54:04;101007.16;;;21.81;100.00
69766;BME280;57039;48.014;21.384;2023-08-21T03:55:07;100998.44;;;21.79;100.00
69766;BME280;57039;48.014;21.384;2023-08-21T03:56:10;101005.63;;;21.78;100.00
69766;BME280;57039;48.014;21.384;2023-08-21T03:57:13;101003.91;;;21.77;100.00
69766;BME280;57039;48.014;21.384;2023-08-21T03:58:16;101003.09;;;21.77;100.00
69766;BME280;57039;48.014;21.384;2023-08-21T03:59:18;101003.78;;;21.79;100.00
69766;BME280;57039;48.014;21.384;2023-08-21T04:00:21;100998.69;;;21.85;100.00
69766;BME280;57039;48.014;21.384;2023-08-21T04:01:25;100975.13;;;21.71;100.00
69766;BME280;57039;48.014;21.384;2023-08-21T04:02:28;101003.34;;;21.83;100.00
69766;BME280;57039;48.014;21.384;2023-08-21T04:03:31;101001.38;;;21.85;100.00
69766;BME280;57039;48.014;21.384;2023-08-21T04:04:34;101005.16;;;21.83;100.00
69766;BME280;57039;48.014;21.384;2023-08-21T04:05:37;101003.50;;;21.82;100.00
69766;BME280;57039;48.014;21.384;2023-08-21T04:06:40;101001.12;;;21.79;100.00
69766;BME280;57039;48.014;21.384;2023-08-21T04:07:42;101005.75;;;21.77;100.00
69766;BME280;57039;48.014;21.384;2023-08-21T04:08:45;101003.91;;;21.77;100.00
69766;BME280;57039;48.014;21.384;2023-08-21T04:09:48;101005.75;;;21.77;100.00
69766;BME280;57039;48.014;21.384;2023-08-21T04:10:50;100995.34;;;21.74;100.00
69766;BME280;57039;48.014;21.384;2023-08-21T04:11:56;101001.12;;;21.79;100.00
69766;BME280;57039;48.014;21.384;2023-08-21T04:12:59;101003.50;;;21.82;100.00
69766;BME280;57039;48.014;21.384;2023-08-21T04:14:04;101009.84;;;21.81;100.00
69766;BME280;57039;48.014;21.384;2023-08-21T04:15:07;101014.03;;;21.83;100.00
69766;BME280;57039;48.014;21.384;2023-08-21T04:16:10;101013.88;;;21.85;100.00
69766;BME280;57039;48.014;21.384;2023-08-21T04:17:21;101008.09;;;21.89;100.00
69766;BME280;57039;48.014;21.384;2023-08-21T04:18:24;101011.34;;;21.93;100.00
69766;BME280;57039;48.014;21.384;2023-08-21T04:19:42;101011.03;;;21.96;100.00
69766;BME280;57039;48.014;21.384;2023-08-21T04:20:49;101013.25;;;22.01;100.00
69766;BME280;57039;48.014;21.384;2023-08-21T04:21:52;101016.19;;;22.07;100.00
69766;BME280;57039;48.014;21.384;2023-08-21T04:22:55;101013.94;;;22.13;100.00
69766;BME280;57039;48.014;21.384;2023-08-21T04:23:59;101020.41;;;22.20;100.00
69766;BME280;57039;48.014;21.384;2023-08-21T04:25:02;101015.44;;;22.25;100.00
69766;BME280;57039;48.014;21.384;2023-08-21T04:26:04;101013.72;;;22.33;100.00
69766;BME280;57039;48.014;21.384;2023-08-21T04:27:07;101019.16;;;22.42;100.00
69766;BME280;57039;48.014;21.384;2023-08-21T04:28:11;101014.06;;;22.48;100.00
69766;BME280;57039;48.014;21.384;2023-08-21T04:29:14;101011.62;;;22.55;100.00
69766;BME280;57039;48.014;21.384;2023-08-21T04:30:19;101015.69;;;22.59;100.00
69766;BME280;57039;48.014;21.384;2023-08-21T04:31:22;101015.00;;;22.57;100.00
69766;BME280;57039;48.014;21.384;2023-08-21T04:32:25;101012.56;;;22.64;100.00
69766;BME280;57039;48.014;21.384;2023-08-21T04:33:29;101013.09;;;22.67;100.00
69766;BME280;57039;48.014;21.384;2023-08-21T04:34:33;101010.13;;;22.70;100.00
69766;BME280;57039;48.014;21.384;2023-08-21T04:35:39;101016.34;;;22.71;100.00
69766;BME280;57039;48.014;21.384;2023-08-21T04:36:41;101016.87;;;22.74;100.00
69766;BME280;57039;48.014;21.384;2023-08-21T04:37:46;101013.59;;;22.81;100.00
69766;BME280;57039;48.014;21.384;2023-08-21T04:38:50;101018.31;;;22.87;100.00
69766;BME280;57039;48.014;21.384;2023-08-21T04:39:53;101020.53;;;22.91;100.00
69766;BME280;57039;48.014;21.384;2023-08-21T04:41:05;101021.97;;;22.95;100.00
69766;BME280;57039;48.014;21.384;2023-08-21T04:42:09;101017.00;;;23.00;100.00
69766;BME280;57039;48.014;21.384;2023-08-21T04:43:12;101013.84;;;23.05;100.00
69766;BME280;57039;48.014;21.384;2023-08-21T04:44:15;101012.22;;;23.12;100.00
69766;BME280;57039;48.014;21.384;2023-08-21T04:46:20;101025.25;;;23.25;100.00
69766;BME280;57039;48.014;21.384;2023-08-21T04:47:25;101022.59;;;23.33;100.00
69766;BME280;57039;48.014;21.384;2023-08-21T04:48:29;101015.97;;;23.37;100.00
69766;BME280;57039;48.014;21.384;2023-08-21T04:49:32;101021.91;;;23.49;100.00
69766;BME280;57039;48.014;21.384;2023-08-21T04:50:35;101028.00;;;23.59;100.00
69766;BME280;57039;48.014;21.384;2023-08-21T04:51:37;101024.88;;;23.64;100.00
69766;BME280;57039;48.014;21.384;2023-08-21T04:52:40;100994.50;;;23.55;100.00
69766;BME280;57039;48.014;21.384;2023-08-21T04:53:43;101016.59;;;23.75;100.00
69766;BME280;57039;48.014;21.384;2023-08-21T04:54:50;101021.81;;;23.77;100.00
69766;BME280;57039;48.014;21.384;2023-08-21T04:55:52;101021.34;;;23.81;100.00
69766;BME280;57039;48.014;21.384;2023-08-21T04:56:55;101023.37;;;23.87;100.00
69766;BME280;57039;48.014;21.384;2023-08-21T04:57:58;101023.22;;;23.89;100.00
69766;BME280;57039;48.014;21.384;2023-08-21T04:59:01;101037.69;;;23.96;100.00
69766;BME280;57039;48.014;21.384;2023-08-21T05:00:05;101021.59;;;23.96;100.00
69766;BME280;57039;48.014;21.384;2023-08-21T05:01:09;101024.78;;;24.00;100.00
69766;BME280;57039;48.014;21.384;2023-08-21T05:02:12;101032.19;;;24.06;100.00
69766;BME280;57039;48.014;21.384;2023-08-21T05:03:15;101031.38;;;24.13;100.00
69766;BME280;57039;48.014;21.384;2023-08-21T05:04:18;101023.66;;;24.10;100.00
69766;BME280;57039;48.014;21.384;2023-08-21T05:05:23;101031.28;;;24.23;100.00
69766;BME280;57039;48.014;21.384;2023-08-21T05:06:27;101036.66;;;24.31;100.00
69766;BME280;57039;48.014;21.384;2023-08-21T05:07:30;101026.75;;;24.32;100.00
69766;BME280;57039;48.014;21.384;2023-08-21T05:08:33;101033.25;;;24.47;100.00
69766;BME280;57039;48.014;21.384;2023-08-21T05:09:36;101006.31;;;24.31;100.00
69766;BME280;57039;48.014;21.384;2023-08-21T05:10:39;101044.81;;;24.56;100.00
69766;BME280;57039;48.014;21.384;2023-08-21T05:11:42;101046.87;;;24.62;100.00
69766;BME280;57039;48.014;21.384;2023-08-21T05:12:45;101045.19;;;24.61;100.00
69766;BME280;57039;48.014;21.384;2023-08-21T05:13:48;101037.66;;;24.65;100.00
69766;BME280;57039;48.014;21.384;2023-08-21T05:14:52;101044.88;;;24.72;100.00
69766;BME280;57039;48.014;21.384;2023-08-21T05:15:56;101024.72;;;24.60;100.00
69766;BME280;57039;48.014;21.384;2023-08-21T05:17:04;101040.53;;;24.79;100.00
69766;BME280;57039;48.014;21.384;2023-08-21T05:18:10;101045.25;;;24.86;100.00
69766;BME280;57039;48.014;21.384;2023-08-21T05:19:17;101049.12;;;24.91;100.00
69766;BME280;57039;48.014;21.384;2023-08-21T05:20:20;101041.91;;;24.92;100.00
69766;BME280;57039;48.014;21.384;2023-08-21T05:21:23;101054.16;;;24.94;100.00
69766;BME280;57039;48.014;21.384;2023-08-21T05:22:26;101051.47;;;24.94;100.00
69766;BME280;57039;48.014;21.384;2023-08-21T05:23:33;100998.59;;;24.62;100.00
69766;BME280;57039;48.014;21.384;2023-08-21T05:24:36;101042.28;;;25.05;100.00
69766;BME280;57039;48.014;21.384;2023-08-21T05:25:39;101045.84;;;25.14;100.00
69766;BME280;57039;48.014;21.384;2023-08-21T05:26:42;101055.25;;;25.26;100.00
69766;BME280;57039;48.014;21.384;2023-08-21T05:27:45;101051.72;;;25.25;100.00
69766;BME280;57039;48.014;21.384;2023-08-21T05:28:48;101049.53;;;25.29;100.00